sensor_id;sensor_type;location;lat;lon;timestamp;temperature;humidity
8539;DHT22;4307;53.868;11.680;2022-07-22T00:01:00;18.80;99.90
8539;DHT22;4307;53.868;11.680;2022-07-22T00:03:27;18.80;99.90
8539;DHT22;4307;53.868;11.680;2022-07-22T00:05:55;18.80;99.90
8539;DHT22;4307;53.868;11.680;2022-07-22T00:08:22;18.80;99.90
8539;DHT22;4307;53.868;11.680;2022-07-22T00:10:48;18.80;99.90
8539;DHT22;4307;53.868;11.680;2022-07-22T00:13:15;18.80;99.90
8539;DHT22;4307;53.868;11.680;2022-07-22T00:15:42;18.70;99.90
8539;DHT22;4307;53.868;11.680;2022-07-22T00:18:08;18.80;99.90
8539;DHT22;4307;53.868;11.680;2022-07-22T00:20:35;18.80;99.90
8539;DHT22;4307;53.868;11.680;2022-07-22T00:23:04;18.80;99.90
8539;DHT22;4307;53.868;11.680;2022-07-22T00:25:30;18.70;99.90
8539;DHT22;4307;53.868;11.680;2022-07-22T00:27:57;18.70;99.90
8539;DHT22;4307;53.868;11.680;2022-07-22T00:30:24;18.80;99.90
8539;DHT22;4307;53.868;11.680;2022-07-22T00:32:50;18.70;99.90
8539;DHT22;4307;53.868;11.680;2022-07-22T00:35:17;18.70;99.90
8539;DHT22;4307;53.868;11.680;2022-07-22T00:37:44;18.80;99.90
8539;DHT22;4307;53.868;11.680;2022-07-22T00:40:12;18.80;99.90
8539;DHT22;4307;53.868;11.680;2022-07-22T00:42:39;18.80;99.90
8539;DHT22;4307;53.868;11.680;2022-07-22T00:45:07;18.80;99.90
8539;DHT22;4307;53.868;11.680;2022-07-22T00:47:34;18.80;99.90
8539;DHT22;4307;53.868;11.680;2022-07-22T00:50:01;18.80;99.90
8539;DHT22;4307;53.868;11.680;2022-07-22T00:52:28;18.90;99.90
8539;DHT22;4307;53.868;11.680;2022-07-22T00:54:55;18.90;99.90
8539;DHT22;4307;53.868;11.680;2022-07-22T00:57:23;18.90;99.90
8539;DHT22;4307;53.868;11.680;2022-07-22T00:59:50;18.80;99.90
8539;DHT22;4307;53.868;11.680;2022-07-22T01:02:17;18.80;99.90
8539;DHT22;4307;53.868;11.680;2022-07-22T01:04:44;18.80;99.90
8539;DHT22;4307;53.868;11.680;2022-07-22T01:07:10;18.80;99.90
8539;DHT22;4307;53.868;11.680;2022-07-22T01:09:37;18.80;99.90
8539;DHT22;4307;53.868;11.680;2022-07-22T01:12:04;18.90;99.90
8539;DHT22;4307;53.868;11.680;2022-07-22T01:14:32;18.90;99.90
8539;DHT22;4307;53.868;11.680;2022-07-22T01:17:01;18.90;99.90
8539;DHT22;4307;53.868;11.680;2022-07-22T01:19:28;18.90;99.90
8539;DHT22;4307;53.868;11.680;2022-07-22T01:21:56;18.90;99.90
8539;DHT22;4307;53.868;11.680;2022-07-22T01:24:22;18.90;99.90
8539;DHT22;4307;53.868;11.680;2022-07-22T01:26:49;18.90;99.90
8539;DHT22;4307;53.868;11.680;2022-07-22T01:29:16;18.90;99.90
8539;DHT22;4307;53.868;11.680;2022-07-22T01:31:42;18.90;99.90
8539;DHT22;4307;53.868;11.680;2022-07-22T01:34:09;18.90;99.90
8539;DHT22;4307;53.868;11.680;2022-07-22T01:36:36;19.00;99.90
8539;DHT22;4307;53.868;11.680;2022-07-22T01:39:04;18.90;99.90
8539;DHT22;4307;53.868;11.680;2022-07-22T01:41:31;18.90;99.90
8539;DHT22;4307;53.868;11.680;2022-07-22T01:43:57;18.90;99.90
8539;DHT22;4307;53.868;11.680;2022-07-22T01:46:24;18.80;99.90
8539;DHT22;4307;53.868;11.680;2022-07-22T01:48:52;18.80;99.90
8539;DHT22;4307;53.868;11.680;2022-07-22T01:51:19;18.80;99.90
8539;DHT22;4307;53.868;11.680;2022-07-22T01:53:46;18.80;99.90
8539;DHT22;4307;53.868;11.680;2022-07-22T01:56:14;18.80;99.90
8539;DHT22;4307;53.868;11.680;2022-07-22T01:58:41;18.70;99.90
8539;DHT22;4307;53.868;11.680;2022-07-22T02:01:08;18.70;99.90
8539;DHT22;4307;53.868;11.680;2022-07-22T02:03:35;18.70;99.90
8539;DHT22;4307;53.868;11.680;2022-07-22T02:06:02;18.70;99.90
8539;DHT22;4307;53.868;11.680;2022-07-22T02:08:29;18.70;99.90
8539;DHT22;4307;53.868;11.680;2022-07-22T02:10:55;18.70;99.90
8539;DHT22;4307;53.868;11.680;2022-07-22T02:13:23;18.70;99.90
8539;DHT22;4307;53.868;11.680;2022-07-22T02:15:50;18.70;99.90
8539;DHT22;4307;53.868;11.680;2022-07-22T02:18:18;18.70;99.90
8539;DHT22;4307;53.868;11.680;2022-07-22T02:20:45;18.70;99.90
8539;DHT22;4307;53.868;11.680;2022-07-22T02:23:12;18.70;99.90
8539;DHT22;4307;53.868;11.680;2022-07-22T02:25:40;18.80;99.90
8539;DHT22;4307;53.868;11.680;2022-07-22T02:28:07;18.80;99.90
8539;DHT22;4307;53.868;11.680;2022-07-22T02:30:36;18.80;99.90
8539;DHT22;4307;53.868;11.680;2022-07-22T02:33:02;18.90;99.90
8539;DHT22;4307;53.868;11.680;2022-07-22T02:35:29;18.90;99.90
8539;DHT22;4307;53.868;11.680;2022-07-22T02:37:56;18.90;99.90
8539;DHT22;4307;53.868;11.680;2022-07-22T02:40:23;18.80;99.90
8539;DHT22;4307;53.868;11.680;2022-07-22T02:42:50;18.80;99.90
8539;DHT22;4307;53.868;11.680;2022-07-22T02:45:16;18.80;99.90
8539;DHT22;4307;53.868;11.680;2022-07-22T02:47:48;18.80;99.90
8539;DHT22;4307;53.868;11.680;2022-07-22T02:50:15;18.80;99.90
8539;DHT22;4307;53.868;11.680;2022-07-22T02:52:42;18.80;99.90
8539;DHT22;4307;53.868;11.680;2022-07-22T02:55:09;18.80;99.90
8539;DHT22;4307;53.868;11.680;2022-07-22T02:57:36;18.80;99.90
8539;DHT22;4307;53.868;11.680;2022-07-22T03:00:04;18.80;99.90
8539;DHT22;4307;53.868;11.680;2022-07-22T03:02:31;18.90;99.90
8539;DHT22;4307;53.868;11.680;2022-07-22T03:04:59;18.90;99.90
8539;DHT22;4307;53.868;11.680;2022-07-22T03:07:26;18.90;99.90
8539;DHT22;4307;53.868;11.680;2022-07-22T03:09:53;18.90;99.90
8539;DHT22;4307;53.868;11.680;2022-07-22T03:12:19;18.90;99.90
8539;DHT22;4307;53.868;11.680;2022-07-22T03:14:46;18.90;99.90
8539;DHT22;4307;53.868;11.680;2022-07-22T03:17:12;18.90;99.90
8539;DHT22;4307;53.868;11.680;2022-07-22T03:19:39;18.90;99.90
8539;DHT22;4307;53.868;11.680;2022-07-22T03:22:07;18.90;99.90
8539;DHT22;4307;53.868;11.680;2022-07-22T03:24:34;18.90;99.90
8539;DHT22;4307;53.868;11.680;2022-07-22T03:27:01;18.90;99.90
8539;DHT22;4307;53.868;11.680;2022-07-22T03:29:28;18.90;99.90
8539;DHT22;4307;53.868;11.680;2022-07-22T03:31:54;19.00;99.90
8539;DHT22;4307;53.868;11.680;2022-07-22T03:34:21;18.90;99.90
8539;DHT22;4307;53.868;11.680;2022-07-22T03:36:48;18.90;99.90
8539;DHT22;4307;53.868;11.680;2022-07-22T03:39:16;19.00;99.90
8539;DHT22;4307;53.868;11.680;2022-07-22T03:41:42;19.00;99.90
8539;DHT22;4307;53.868;11.680;2022-07-22T03:44:09;19.00;99.90
8539;DHT22;4307;53.868;11.680;2022-07-22T03:46:36;19.00;99.90
8539;DHT22;4307;53.868;11.680;2022-07-22T03:49:02;19.00;99.90
8539;DHT22;4307;53.868;11.680;2022-07-22T03:51:29;19.00;99.90
8539;DHT22;4307;53.868;11.680;2022-07-22T03:53:56;19.00;99.90
8539;DHT22;4307;53.868;11.680;2022-07-22T03:56:24;19.00;99.90
8539;DHT22;4307;53.868;11.680;2022-07-22T03:58:50;19.00;99.90
8539;DHT22;4307;53.868;11.680;2022-07-22T04:01:17;19.00;99.90
8539;DHT22;4307;53.868;11.680;2022-07-22T04:03:44;19.00;99.90
8539;DHT22;4307;53.868;11.680;2022-07-22T04:06:10;19.00;99.90
8539;DHT22;4307;53.868;11.680;2022-07-22T04:08:37;19.00;99.90
8539;DHT22;4307;53.868;11.680;2022-07-22T04:11:04;18.90;99.90
8539;DHT22;4307;53.868;11.680;2022-07-22T04:13:32;18.80;99.90
8539;DHT22;4307;53.868;11.680;2022-07-22T04:15:59;18.70;99.90
8539;DHT22;4307;53.868;11.680;2022-07-22T04:18:26;18.60;99.90
8539;DHT22;4307;53.868;11.680;2022-07-22T04:20:52;18.50;99.90
8539;DHT22;4307;53.868;11.680;2022-07-22T04:23:19;18.40;99.90
8539;DHT22;4307;53.868;11.680;2022-07-22T04:25:45;18.30;99.90
8539;DHT22;4307;53.868;11.680;2022-07-22T04:28:12;18.20;99.90
8539;DHT22;4307;53.868;11.680;2022-07-22T04:30:40;18.10;99.90
8539;DHT22;4307;53.868;11.680;2022-07-22T04:33:07;18.10;99.90
8539;DHT22;4307;53.868;11.680;2022-07-22T04:35:34;18.00;99.90
8539;DHT22;4307;53.868;11.680;2022-07-22T04:38:01;18.00;99.90
8539;DHT22;4307;53.868;11.680;2022-07-22T04:40:27;18.00;99.90
8539;DHT22;4307;53.868;11.680;2022-07-22T04:42:54;18.10;99.90
8539;DHT22;4307;53.868;11.680;2022-07-22T04:45:21;18.10;99.90
8539;DHT22;4307;53.868;11.680;2022-07-22T04:47:49;18.10;99.90
8539;DHT22;4307;53.868;11.680;2022-07-22T04:50:15;18.10;99.90
8539;DHT22;4307;53.868;11.680;2022-07-22T04:52:42;18.10;99.90
8539;DHT22;4307;53.868;11.680;2022-07-22T04:55:09;18.20;99.90
8539;DHT22;4307;53.868;11.680;2022-07-22T04:57:35;18.20;99.90
8539;DHT22;4307;53.868;11.680;2022-07-22T05:00:03;18.20;99.90
8539;DHT22;4307;53.868;11.680;2022-07-22T05:02:30;18.20;99.90
8539;DHT22;4307;53.868;11.680;2022-07-22T05:04:59;18.10;99.90
8539;DHT22;4307;53.868;11.680;2022-07-22T05:07:26;18.10;99.90
8539;DHT22;4307;53.868;11.680;2022-07-22T05:09:52;17.90;99.90
8539;DHT22;4307;53.868;11.680;2022-07-22T05:12:19;17.90;99.90
8539;DHT22;4307;53.868;11.680;2022-07-22T05:14:46;17.80;99.90
8539;DHT22;4307;53.868;11.680;2022-07-22T05:17:12;17.70;99.90
8539;DHT22;4307;53.868;11.680;2022-07-22T05:19:39;17.60;99.90
8539;DHT22;4307;53.868;11.680;2022-07-22T05:22:07;17.60;99.90
8539;DHT22;4307;53.868;11.680;2022-07-22T05:24:34;17.50;99.90
8539;DHT22;4307;53.868;11.680;2022-07-22T05:27:01;17.50;99.90
8539;DHT22;4307;53.868;11.680;2022-07-22T05:29:28;17.40;99.90
8539;DHT22;4307;53.868;11.680;2022-07-22T05:31:55;17.40;99.90
8539;DHT22;4307;53.868;11.680;2022-07-22T05:34:22;17.40;99.90
8539;DHT22;4307;53.868;11.680;2022-07-22T05:36:48;17.30;99.90
8539;DHT22;4307;53.868;11.680;2022-07-22T05:39:16;17.30;99.90
8539;DHT22;4307;53.868;11.680;2022-07-22T05:41:44;17.20;99.90
8539;DHT22;4307;53.868;11.680;2022-07-22T05:44:11;17.20;99.90
8539;DHT22;4307;53.868;11.680;2022-07-22T05:46:39;17.20;99.90
8539;DHT22;4307;53.868;11.680;2022-07-22T05:49:06;17.20;99.90
8539;DHT22;4307;53.868;11.680;2022-07-22T05:51:33;17.20;99.90
8539;DHT22;4307;53.868;11.680;2022-07-22T05:54:00;17.20;99.90
8539;DHT22;4307;53.868;11.680;2022-07-22T05:56:30;17.20;99.90
8539;DHT22;4307;53.868;11.680;2022-07-22T05:58:57;17.20;99.90
8539;DHT22;4307;53.868;11.680;2022-07-22T06:01:24;17.20;99.90
8539;DHT22;4307;53.868;11.680;2022-07-22T06:03:51;17.20;99.90
8539;DHT22;4307;53.868;11.680;2022-07-22T06:06:17;17.20;99.90
8539;DHT22;4307;53.868;11.680;2022-07-22T06:08:44;17.20;99.90
8539;DHT22;4307;53.868;11.680;2022-07-22T06:11:11;17.20;99.90
8539;DHT22;4307;53.868;11.680;2022-07-22T06:13:39;17.20;99.90
8539;DHT22;4307;53.868;11.680;2022-07-22T06:16:06;17.20;99.90
8539;DHT22;4307;53.868;11.680;2022-07-22T06:18:33;17.10;99.90
8539;DHT22;4307;53.868;11.680;2022-07-22T06:20:59;17.10;99.90
8539;DHT22;4307;53.868;11.680;2022-07-22T06:23:26;17.00;99.90
8539;DHT22;4307;53.868;11.680;2022-07-22T06:25:53;17.00;99.90
8539;DHT22;4307;53.868;11.680;2022-07-22T06:28:19;17.00;99.90
8539;DHT22;4307;53.868;11.680;2022-07-22T06:30:48;17.00;99.90
8539;DHT22;4307;53.868;11.680;2022-07-22T06:33:14;17.00;99.90
8539;DHT22;4307;53.868;11.680;2022-07-22T06:35:41;17.00;99.90
8539;DHT22;4307;53.868;11.680;2022-07-22T06:38:08;17.10;99.90
8539;DHT22;4307;53.868;11.680;2022-07-22T06:40:35;17.10;99.90
8539;DHT22;4307;53.868;11.680;2022-07-22T06:43:02;17.20;99.90
8539;DHT22;4307;53.868;11.680;2022-07-22T06:45:29;17.30;99.90
8539;DHT22;4307;53.868;11.680;2022-07-22T06:47:57;17.40;99.90
8539;DHT22;4307;53.868;11.680;2022-07-22T06:50:24;17.40;99.90
8539;DHT22;4307;53.868;11.680;2022-07-22T06:52:51;17.40;99.90
8539;DHT22;4307;53.868;11.680;2022-07-22T06:55:18;17.40;99.90
8539;DHT22;4307;53.868;11.680;2022-07-22T06:57:45;17.40;99.90
8539;DHT22;4307;53.868;11.680;2022-07-22T07:00:12;17.50;99.90
8539;DHT22;4307;53.868;11.680;2022-07-22T07:02:39;17.60;99.90
8539;DHT22;4307;53.868;11.680;2022-07-22T07:05:08;17.70;99.90
8539;DHT22;4307;53.868;11.680;2022-07-22T07:07:35;17.70;99.90
8539;DHT22;4307;53.868;11.680;2022-07-22T07:10:02;17.80;99.90
8539;DHT22;4307;53.868;11.680;2022-07-22T07:12:29;17.80;99.90
8539;DHT22;4307;53.868;11.680;2022-07-22T07:14:55;17.70;99.90
8539;DHT22;4307;53.868;11.680;2022-07-22T07:17:22;17.70;99.90
8539;DHT22;4307;53.868;11.680;2022-07-22T07:19:49;17.80;99.90
8539;DHT22;4307;53.868;11.680;2022-07-22T07:22:17;17.80;99.90
8539;DHT22;4307;53.868;11.680;2022-07-22T07:24:45;17.90;99.90
8539;DHT22;4307;53.868;11.680;2022-07-22T07:27:12;18.00;99.90
8539;DHT22;4307;53.868;11.680;2022-07-22T07:29:38;18.00;99.90
8539;DHT22;4307;53.868;11.680;2022-07-22T07:32:05;18.00;99.90
8539;DHT22;4307;53.868;11.680;2022-07-22T07:34:32;18.10;99.90
8539;DHT22;4307;53.868;11.680;2022-07-22T07:36:59;18.20;99.90
8539;DHT22;4307;53.868;11.680;2022-07-22T07:39:27;18.30;99.90
8539;DHT22;4307;53.868;11.680;2022-07-22T07:41:53;18.30;99.90
8539;DHT22;4307;53.868;11.680;2022-07-22T07:44:20;18.40;99.90
8539;DHT22;4307;53.868;11.680;2022-07-22T07:46:47;18.50;99.90
8539;DHT22;4307;53.868;11.680;2022-07-22T07:49:13;18.40;99.90
8539;DHT22;4307;53.868;11.680;2022-07-22T07:51:40;18.50;99.90
8539;DHT22;4307;53.868;11.680;2022-07-22T07:54:07;18.50;99.90
8539;DHT22;4307;53.868;11.680;2022-07-22T07:56:35;18.50;99.90
8539;DHT22;4307;53.868;11.680;2022-07-22T07:59:01;18.60;99.90
8539;DHT22;4307;53.868;11.680;2022-07-22T08:01:28;18.60;99.90
8539;DHT22;4307;53.868;11.680;2022-07-22T08:03:55;18.60;99.90
8539;DHT22;4307;53.868;11.680;2022-07-22T08:06:21;18.60;99.90
8539;DHT22;4307;53.868;11.680;2022-07-22T08:08:48;18.60;99.90
8539;DHT22;4307;53.868;11.680;2022-07-22T08:11:15;18.60;99.90
8539;DHT22;4307;53.868;11.680;2022-07-22T08:13:43;18.60;99.90
8539;DHT22;4307;53.868;11.680;2022-07-22T08:16:10;18.60;99.90
8539;DHT22;4307;53.868;11.680;2022-07-22T08:18:36;18.60;99.90
8539;DHT22;4307;53.868;11.680;2022-07-22T08:21:03;18.60;99.90
8539;DHT22;4307;53.868;11.680;2022-07-22T08:23:30;18.60;99.90
8539;DHT22;4307;53.868;11.680;2022-07-22T08:25:56;18.60;99.90
8539;DHT22;4307;53.868;11.680;2022-07-22T08:28:23;18.60;99.90
8539;DHT22;4307;53.868;11.680;2022-07-22T08:30:51;18.60;99.90
8539;DHT22;4307;53.868;11.680;2022-07-22T08:33:19;18.60;99.90
8539;DHT22;4307;53.868;11.680;2022-07-22T08:35:45;18.70;99.90
8539;DHT22;4307;53.868;11.680;2022-07-22T08:38:12;18.70;99.90
8539;DHT22;4307;53.868;11.680;2022-07-22T08:40:39;18.60;99.90
8539;DHT22;4307;53.868;11.680;2022-07-22T08:43:06;18.70;99.90
8539;DHT22;4307;53.868;11.680;2022-07-22T08:45:32;18.70;99.90
8539;DHT22;4307;53.868;11.680;2022-07-22T08:48:00;18.70;99.90
8539;DHT22;4307;53.868;11.680;2022-07-22T08:50:29;18.70;99.90
8539;DHT22;4307;53.868;11.680;2022-07-22T08:52:56;18.80;99.90
8539;DHT22;4307;53.868;11.680;2022-07-22T08:55:24;18.80;99.90
8539;DHT22;4307;53.868;11.680;2022-07-22T08:57:51;18.90;99.90
8539;DHT22;4307;53.868;11.680;2022-07-22T09:00:19;19.10;99.90
8539;DHT22;4307;53.868;11.680;2022-07-22T09:02:47;19.30;99.90
8539;DHT22;4307;53.868;11.680;2022-07-22T09:05:16;19.30;99.90
8539;DHT22;4307;53.868;11.680;2022-07-22T09:07:44;19.30;99.90
8539;DHT22;4307;53.868;11.680;2022-07-22T09:10:13;19.30;99.90
8539;DHT22;4307;53.868;11.680;2022-07-22T09:12:54;19.40;99.90
8539;DHT22;4307;53.868;11.680;2022-07-22T09:15:29;19.30;99.90
8539;DHT22;4307;53.868;11.680;2022-07-22T09:17:57;19.30;99.90
8539;DHT22;4307;53.868;11.680;2022-07-22T09:20:27;19.20;99.90
8539;DHT22;4307;53.868;11.680;2022-07-22T09:22:54;19.20;99.90
8539;DHT22;4307;53.868;11.680;2022-07-22T09:25:24;19.20;99.90
8539;DHT22;4307;53.868;11.680;2022-07-22T09:27:53;19.20;99.90
8539;DHT22;4307;53.868;11.680;2022-07-22T09:30:22;19.10;99.90
8539;DHT22;4307;53.868;11.680;2022-07-22T09:32:49;19.10;99.90
8539;DHT22;4307;53.868;11.680;2022-07-22T09:35:16;19.10;99.90
8539;DHT22;4307;53.868;11.680;2022-07-22T09:37:49;19.20;99.90
8539;DHT22;4307;53.868;11.680;2022-07-22T09:40:18;19.40;99.90
8539;DHT22;4307;53.868;11.680;2022-07-22T09:42:47;19.60;99.90
8539;DHT22;4307;53.868;11.680;2022-07-22T09:45:15;19.70;99.90
8539;DHT22;4307;53.868;11.680;2022-07-22T09:47:42;19.70;99.90
8539;DHT22;4307;53.868;11.680;2022-07-22T09:50:20;19.80;99.90
8539;DHT22;4307;53.868;11.680;2022-07-22T09:52:50;19.90;99.90
8539;DHT22;4307;53.868;11.680;2022-07-22T09:55:19;20.00;99.90
8539;DHT22;4307;53.868;11.680;2022-07-22T09:57:47;20.00;99.90
8539;DHT22;4307;53.868;11.680;2022-07-22T10:00:16;19.90;99.90
8539;DHT22;4307;53.868;11.680;2022-07-22T10:02:48;19.90;99.90
8539;DHT22;4307;53.868;11.680;2022-07-22T10:05:17;19.80;99.90
8539;DHT22;4307;53.868;11.680;2022-07-22T10:07:45;19.80;99.90
8539;DHT22;4307;53.868;11.680;2022-07-22T10:10:15;20.00;99.90
8539;DHT22;4307;53.868;11.680;2022-07-22T10:12:43;20.30;99.90
8539;DHT22;4307;53.868;11.680;2022-07-22T10:15:11;20.70;99.90
8539;DHT22;4307;53.868;11.680;2022-07-22T10:17:40;21.00;99.90
8539;DHT22;4307;53.868;11.680;2022-07-22T10:20:09;21.30;99.90
8539;DHT22;4307;53.868;11.680;2022-07-22T10:22:48;21.50;99.90
8539;DHT22;4307;53.868;11.680;2022-07-22T10:25:18;21.60;99.90
8539;DHT22;4307;53.868;11.680;2022-07-22T10:27:45;21.40;99.90
8539;DHT22;4307;53.868;11.680;2022-07-22T10:30:14;21.30;99.90
8539;DHT22;4307;53.868;11.680;2022-07-22T10:32:42;21.20;99.90
8539;DHT22;4307;53.868;11.680;2022-07-22T10:35:22;21.00;99.90
8539;DHT22;4307;53.868;11.680;2022-07-22T10:37:52;20.70;99.90
8539;DHT22;4307;53.868;11.680;2022-07-22T10:40:23;20.40;99.90
8539;DHT22;4307;53.868;11.680;2022-07-22T10:45:41;19.90;99.90
8539;DHT22;4307;53.868;11.680;2022-07-22T10:48:12;19.70;99.90
8539;DHT22;4307;53.868;11.680;2022-07-22T10:50:42;19.70;99.90
8539;DHT22;4307;53.868;11.680;2022-07-22T10:53:10;19.70;99.90
8539;DHT22;4307;53.868;11.680;2022-07-22T10:55:39;19.80;99.90
8539;DHT22;4307;53.868;11.680;2022-07-22T10:58:41;19.90;99.90
8539;DHT22;4307;53.868;11.680;2022-07-22T11:01:10;20.20;99.90
8539;DHT22;4307;53.868;11.680;2022-07-22T11:03:39;20.50;99.90
8539;DHT22;4307;53.868;11.680;2022-07-22T11:06:23;20.80;99.90
8539;DHT22;4307;53.868;11.680;2022-07-22T11:08:51;21.20;99.90
8539;DHT22;4307;53.868;11.680;2022-07-22T11:11:37;21.40;99.90
8539;DHT22;4307;53.868;11.680;2022-07-22T11:14:20;21.60;99.90
8539;DHT22;4307;53.868;11.680;2022-07-22T11:16:48;21.70;99.90
8539;DHT22;4307;53.868;11.680;2022-07-22T11:19:19;21.80;99.90
8539;DHT22;4307;53.868;11.680;2022-07-22T11:21:50;21.80;99.90
8539;DHT22;4307;53.868;11.680;2022-07-22T11:24:18;21.80;99.90
8539;DHT22;4307;53.868;11.680;2022-07-22T11:26:48;21.80;99.90
8539;DHT22;4307;53.868;11.680;2022-07-22T11:29:17;21.60;99.90
8539;DHT22;4307;53.868;11.680;2022-07-22T11:31:44;21.40;99.90
8539;DHT22;4307;53.868;11.680;2022-07-22T11:34:13;21.00;99.90
8539;DHT22;4307;53.868;11.680;2022-07-22T11:36:42;20.80;99.90
8539;DHT22;4307;53.868;11.680;2022-07-22T11:39:10;20.60;99.90
8539;DHT22;4307;53.868;11.680;2022-07-22T11:41:38;20.50;99.90
8539;DHT22;4307;53.868;11.680;2022-07-22T11:44:07;20.40;99.90
8539;DHT22;4307;53.868;11.680;2022-07-22T11:46:38;20.30;99.90
8539;DHT22;4307;53.868;11.680;2022-07-22T11:49:09;20.40;99.90
8539;DHT22;4307;53.868;11.680;2022-07-22T11:51:37;20.60;99.90
8539;DHT22;4307;53.868;11.680;2022-07-22T11:54:04;21.10;99.90
8539;DHT22;4307;53.868;11.680;2022-07-22T11:56:32;21.80;99.90
8539;DHT22;4307;53.868;11.680;2022-07-22T11:58:59;22.00;99.90
8539;DHT22;4307;53.868;11.680;2022-07-22T12:01:33;22.00;99.90
8539;DHT22;4307;53.868;11.680;2022-07-22T12:04:02;21.80;99.90
8539;DHT22;4307;53.868;11.680;2022-07-22T12:06:29;21.70;99.90
8539;DHT22;4307;53.868;11.680;2022-07-22T12:09:04;21.70;99.90
8539;DHT22;4307;53.868;11.680;2022-07-22T12:11:31;21.70;99.90
8539;DHT22;4307;53.868;11.680;2022-07-22T12:14:05;21.70;99.90
8539;DHT22;4307;53.868;11.680;2022-07-22T12:16:34;21.80;99.90
8539;DHT22;4307;53.868;11.680;2022-07-22T12:19:03;21.90;99.90
8539;DHT22;4307;53.868;11.680;2022-07-22T12:21:31;22.00;99.90
8539;DHT22;4307;53.868;11.680;2022-07-22T12:24:01;22.10;99.90
8539;DHT22;4307;53.868;11.680;2022-07-22T12:26:39;22.10;99.90
8539;DHT22;4307;53.868;11.680;2022-07-22T12:29:14;22.20;99.90
8539;DHT22;4307;53.868;11.680;2022-07-22T12:31:43;22.50;99.90
8539;DHT22;4307;53.868;11.680;2022-07-22T12:34:10;22.60;99.90
8539;DHT22;4307;53.868;11.680;2022-07-22T12:36:37;22.80;99.80
8539;DHT22;4307;53.868;11.680;2022-07-22T12:39:12;23.10;98.70
8539;DHT22;4307;53.868;11.680;2022-07-22T12:41:45;23.20;98.00
8539;DHT22;4307;53.868;11.680;2022-07-22T12:44:16;23.40;97.40
8539;DHT22;4307;53.868;11.680;2022-07-22T12:46:46;23.40;96.40
8539;DHT22;4307;53.868;11.680;2022-07-22T12:49:15;23.30;96.20
8539;DHT22;4307;53.868;11.680;2022-07-22T12:51:42;23.50;95.90
8539;DHT22;4307;53.868;11.680;2022-07-22T12:54:08;23.80;95.30
8539;DHT22;4307;53.868;11.680;2022-07-22T12:56:38;24.10;94.30
8539;DHT22;4307;53.868;11.680;2022-07-22T12:59:05;24.40;93.70
8539;DHT22;4307;53.868;11.680;2022-07-22T13:01:32;25.10;93.40
8539;DHT22;4307;53.868;11.680;2022-07-22T13:04:00;25.70;92.70
8539;DHT22;4307;53.868;11.680;2022-07-22T13:06:28;26.10;91.30
8539;DHT22;4307;53.868;11.680;2022-07-22T13:08:55;26.20;90.50
8539;DHT22;4307;53.868;11.680;2022-07-22T13:11:21;26.30;90.00
8539;DHT22;4307;53.868;11.680;2022-07-22T13:13:48;26.00;89.20
8539;DHT22;4307;53.868;11.680;2022-07-22T13:16:15;25.70;89.60
8539;DHT22;4307;53.868;11.680;2022-07-22T13:18:41;25.40;87.80
8539;DHT22;4307;53.868;11.680;2022-07-22T13:21:09;25.40;89.20
8539;DHT22;4307;53.868;11.680;2022-07-22T13:23:36;25.90;88.20
8539;DHT22;4307;53.868;11.680;2022-07-22T13:26:03;26.10;86.50
8539;DHT22;4307;53.868;11.680;2022-07-22T13:28:29;26.10;86.70
8539;DHT22;4307;53.868;11.680;2022-07-22T13:30:56;26.20;87.70
8539;DHT22;4307;53.868;11.680;2022-07-22T13:33:23;26.30;85.20
8539;DHT22;4307;53.868;11.680;2022-07-22T13:35:49;26.10;83.30
8539;DHT22;4307;53.868;11.680;2022-07-22T13:38:18;25.60;82.60
8539;DHT22;4307;53.868;11.680;2022-07-22T13:40:45;25.10;83.10
8539;DHT22;4307;53.868;11.680;2022-07-22T13:43:16;24.70;85.10
8539;DHT22;4307;53.868;11.680;2022-07-22T13:45:43;24.70;86.00
8539;DHT22;4307;53.868;11.680;2022-07-22T13:48:10;24.70;86.00
8539;DHT22;4307;53.868;11.680;2022-07-22T13:50:36;24.70;86.40
8539;DHT22;4307;53.868;11.680;2022-07-22T13:53:03;24.60;85.30
8539;DHT22;4307;53.868;11.680;2022-07-22T13:55:31;24.60;85.30
8539;DHT22;4307;53.868;11.680;2022-07-22T13:57:58;24.50;83.80
8539;DHT22;4307;53.868;11.680;2022-07-22T14:00:24;24.30;84.10
8539;DHT22;4307;53.868;11.680;2022-07-22T14:02:51;24.20;84.90
8539;DHT22;4307;53.868;11.680;2022-07-22T14:05:18;24.20;85.10
8539;DHT22;4307;53.868;11.680;2022-07-22T14:07:45;24.20;85.30
8539;DHT22;4307;53.868;11.680;2022-07-22T14:10:12;24.30;85.40
8539;DHT22;4307;53.868;11.680;2022-07-22T14:12:41;24.30;85.10
8539;DHT22;4307;53.868;11.680;2022-07-22T14:15:09;24.40;85.10
8539;DHT22;4307;53.868;11.680;2022-07-22T14:17:36;24.40;85.10
8539;DHT22;4307;53.868;11.680;2022-07-22T14:20:04;24.20;83.90
8539;DHT22;4307;53.868;11.680;2022-07-22T14:22:33;24.00;84.20
8539;DHT22;4307;53.868;11.680;2022-07-22T14:25:00;23.70;85.20
8539;DHT22;4307;53.868;11.680;2022-07-22T14:27:26;23.60;85.60
8539;DHT22;4307;53.868;11.680;2022-07-22T14:29:54;23.30;85.60
8539;DHT22;4307;53.868;11.680;2022-07-22T14:32:21;23.20;86.40
8539;DHT22;4307;53.868;11.680;2022-07-22T14:34:48;23.30;86.90
8539;DHT22;4307;53.868;11.680;2022-07-22T14:37:14;23.30;86.20
8539;DHT22;4307;53.868;11.680;2022-07-22T14:39:41;23.20;87.30
8539;DHT22;4307;53.868;11.680;2022-07-22T14:42:09;23.20;87.20
8539;DHT22;4307;53.868;11.680;2022-07-22T14:44:35;23.30;87.10
8539;DHT22;4307;53.868;11.680;2022-07-22T14:47:03;23.40;86.90
8539;DHT22;4307;53.868;11.680;2022-07-22T14:49:30;23.50;86.90
8539;DHT22;4307;53.868;11.680;2022-07-22T14:51:57;23.60;87.00
8539;DHT22;4307;53.868;11.680;2022-07-22T14:54:23;23.70;86.50
8539;DHT22;4307;53.868;11.680;2022-07-22T14:56:50;23.50;86.10
8539;DHT22;4307;53.868;11.680;2022-07-22T14:59:17;23.40;84.80
8539;DHT22;4307;53.868;11.680;2022-07-22T15:01:43;23.20;86.60
8539;DHT22;4307;53.868;11.680;2022-07-22T15:04:11;23.20;87.30
8539;DHT22;4307;53.868;11.680;2022-07-22T15:06:38;23.30;87.80
8539;DHT22;4307;53.868;11.680;2022-07-22T15:09:05;23.40;87.20
8539;DHT22;4307;53.868;11.680;2022-07-22T15:11:31;23.50;87.10
8539;DHT22;4307;53.868;11.680;2022-07-22T15:13:58;23.60;86.50
8539;DHT22;4307;53.868;11.680;2022-07-22T15:16:25;23.50;85.60
8539;DHT22;4307;53.868;11.680;2022-07-22T15:18:51;23.40;85.80
8539;DHT22;4307;53.868;11.680;2022-07-22T15:21:19;23.50;86.40
8539;DHT22;4307;53.868;11.680;2022-07-22T15:23:47;23.40;86.30
8539;DHT22;4307;53.868;11.680;2022-07-22T15:26:17;23.40;86.30
8539;DHT22;4307;53.868;11.680;2022-07-22T15:28:43;23.50;86.30
8539;DHT22;4307;53.868;11.680;2022-07-22T15:31:12;23.70;86.40
8539;DHT22;4307;53.868;11.680;2022-07-22T15:33:39;23.80;86.40
8539;DHT22;4307;53.868;11.680;2022-07-22T15:36:07;23.90;86.20
8539;DHT22;4307;53.868;11.680;2022-07-22T15:38:36;23.90;85.80
8539;DHT22;4307;53.868;11.680;2022-07-22T15:41:04;23.90;85.70
8539;DHT22;4307;53.868;11.680;2022-07-22T15:43:32;23.90;85.70
8539;DHT22;4307;53.868;11.680;2022-07-22T15:45:58;23.80;85.70
8539;DHT22;4307;53.868;11.680;2022-07-22T15:48:25;23.70;85.20
8539;DHT22;4307;53.868;11.680;2022-07-22T15:50:52;23.60;85.20